Time;durP1;ratioP1;P1;durP2;ratioP2;P2;SDS_P1;SDS_P2;PMS_P1;PMS_P2;Temp;Humidity;BMP_temperature;BMP_pressure;BME280_temperature;BME280_humidity;BME280_pressure;Samples;Min_cycle;Max_cycle;Signal;HPM_P1;HPM_P2
2020/12/25 00:00:59;;;;;;;6.40;5.80;;;29.40;66.90;;;;;;5050923;28;20709;-74
2020/12/25 00:03:38;;;;;;;7.03;5.97;;;29.40;66.90;;;;;;5031006;28;20246;-74
2020/12/25 00:06:09;;;;;;;9.35;6.10;;;29.40;67.00;;;;;;5036780;28;20226;-74
2020/12/25 00:08:41;;;;;;;7.28;6.57;;;29.30;67.00;;;;;;5031008;28;20258;-74
2020/12/25 00:11:12;;;;;;;7.30;6.65;;;29.40;67.00;;;;;;5042730;28;20286;-76
2020/12/25 00:13:46;;;;;;;7.85;7.10;;;29.40;66.90;;;;;;5051053;28;20236;-75
2020/12/25 00:16:17;;;;;;;8.73;7.10;;;29.40;66.90;;;;;;5048090;28;20260;-74
2020/12/25 00:18:48;;;;;;;7.70;7.00;;;29.40;67.00;;;;;;5042107;28;20732;-74
2020/12/25 00:21:19;;;;;;;8.45;7.65;;;29.40;66.90;;;;;;5046969;28;20233;-74
2020/12/25 00:23:51;;;;;;;8.02;7.22;;;29.40;66.90;;;;;;5048397;28;20230;-75
2020/12/25 00:26:25;;;;;;;8.50;7.22;;;29.40;66.90;;;;;;5046723;28;20291;-74
2020/12/25 00:28:57;;;;;;;8.90;7.28;;;29.40;66.90;;;;;;5044147;28;20229;-75
2020/12/25 00:31:29;;;;;;;8.57;7.63;;;29.40;67.00;;;;;;5033235;28;20239;-76
2020/12/25 00:34:00;;;;;;;9.60;7.93;;;29.40;66.90;;;;;;5046430;28;20312;-75
2020/12/25 00:36:32;;;;;;;9.45;7.68;;;29.40;66.90;;;;;;5043084;28;20429;-75
2020/12/25 00:39:05;;;;;;;9.57;8.38;;;29.50;67.00;;;;;;5039220;28;20253;-75
2020/12/25 00:41:36;;;;;;;10.88;8.05;;;29.50;67.00;;;;;;5046810;28;20238;-74
2020/12/25 00:44:06;;;;;;;11.68;8.57;;;29.40;66.80;;;;;;5046038;28;20237;-74
2020/12/25 00:46:37;;;;;;;9.50;8.18;;;29.40;66.90;;;;;;5028819;28;20568;-74
2020/12/25 00:49:08;;;;;;;10.90;9.40;;;29.50;67.10;;;;;;5040799;28;20244;-74
2020/12/25 00:51:39;;;;;;;11.77;9.77;;;29.40;66.90;;;;;;5049381;28;20233;-74
2020/12/25 00:54:11;;;;;;;11.00;9.95;;;29.50;67.00;;;;;;5052934;28;20229;-74
2020/12/25 00:56:41;;;;;;;12.82;11.60;;;29.40;67.70;;;;;;5054700;28;20249;-74
2020/12/25 00:59:12;;;;;;;11.88;10.68;;;29.50;66.80;;;;;;5046792;28;20230;-74
2020/12/25 01:01:42;;;;;;;11.70;10.40;;;29.50;67.00;;;;;;5054502;28;20233;-74
2020/12/25 01:04:17;;;;;;;13.45;10.55;;;29.50;67.00;;;;;;5055113;28;20664;-74
2020/12/25 01:06:50;;;;;;;12.50;10.35;;;29.50;67.00;;;;;;5054502;28;20237;-74
2020/12/25 01:09:24;;;;;;;13.32;11.63;;;29.50;67.10;;;;;;5053617;28;20588;-74
2020/12/25 01:11:55;;;;;;;13.50;12.25;;;29.50;67.10;;;;;;5051529;28;20229;-74
2020/12/25 01:14:26;;;;;;;14.85;13.10;;;29.50;67.10;;;;;;5054730;28;20291;-75
2020/12/25 01:16:56;;;;;;;14.95;13.23;;;29.50;67.20;;;;;;5054196;28;20233;-75
2020/12/25 01:19:27;;;;;;;14.20;12.77;;;29.50;67.10;;;;;;5054017;28;20260;-75
2020/12/25 01:21:58;;;;;;;14.55;12.85;;;29.50;67.10;;;;;;5052515;28;20237;-76
2020/12/25 01:24:30;;;;;;;13.95;12.55;;;29.50;67.00;;;;;;5049604;28;20237;-75
2020/12/25 01:27:00;;;;;;;14.10;12.60;;;29.50;67.10;;;;;;5053991;28;20229;-75
2020/12/25 01:29:32;;;;;;;15.95;12.77;;;29.60;67.00;;;;;;5052905;28;20233;-75
2020/12/25 01:32:02;;;;;;;12.50;11.30;;;29.50;67.00;;;;;;5054026;28;20685;-75
2020/12/25 01:34:35;;;;;;;13.60;12.05;;;29.60;67.10;;;;;;5034073;28;20698;-75
2020/12/25 01:37:06;;;;;;;11.13;10.13;;;29.50;67.00;;;;;;5038490;28;20682;-75
2020/12/25 01:39:38;;;;;;;10.82;9.73;;;29.50;66.90;;;;;;5052521;28;20660;-75
2020/12/25 01:42:08;;;;;;;13.20;9.77;;;29.50;66.90;;;;;;5052800;28;20238;-76
2020/12/25 01:44:39;;;;;;;10.88;9.77;;;29.60;66.90;;;;;;5071469;28;20241;-76
2020/12/25 01:47:09;;;;;;;10.93;9.82;;;29.60;67.00;;;;;;5073781;28;20233;-75
2020/12/25 01:49:40;;;;;;;10.10;9.10;;;29.60;67.00;;;;;;5068011;28;20226;-76
2020/12/25 01:52:11;;;;;;;10.43;9.35;;;29.60;66.90;;;;;;5053540;28;20233;-74
2020/12/25 01:54:44;;;;;;;10.18;8.95;;;29.60;67.00;;;;;;5053664;28;20230;-77
2020/12/25 01:57:15;;;;;;;10.82;9.80;;;29.60;67.00;;;;;;5053374;28;20232;-75
2020/12/25 01:59:46;;;;;;;10.32;9.32;;;29.60;66.90;;;;;;5052160;28;20232;-76
2020/12/25 02:02:16;;;;;;;10.80;9.80;;;29.70;67.00;;;;;;5053234;28;20748;-76
2020/12/25 02:04:54;;;;;;;9.55;8.65;;;29.70;67.00;;;;;;5051902;28;20233;-76
2020/12/25 02:07:24;;;;;;;10.93;8.00;;;29.70;67.00;;;;;;5053152;28;20230;-76
2020/12/25 02:09:56;;;;;;;8.95;7.95;;;29.80;67.10;;;;;;5052707;28;20230;-75
2020/12/25 02:12:27;;;;;;;10.52;8.85;;;29.80;66.90;;;;;;5009888;28;20242;-75
2020/12/25 02:14:58;;;;;;;10.88;8.13;;;29.90;67.10;;;;;;5001303;28;20655;-75
2020/12/25 02:17:28;;;;;;;9.18;8.30;;;29.90;67.10;;;;;;5007220;28;20330;-75
2020/12/25 02:20:00;;;;;;;11.15;8.60;;;30.00;67.00;;;;;;5008748;28;20242;-75
2020/12/25 02:22:32;;;;;;;9.52;7.95;;;30.00;67.00;;;;;;5009836;28;20239;-75
2020/12/25 02:25:03;;;;;;;8.40;7.68;;;30.10;66.70;;;;;;5018310;28;20241;-76
2020/12/25 02:27:33;;;;;;;10.48;8.63;;;30.20;66.60;;;;;;5030377;28;20577;-75
2020/12/25 02:30:05;;;;;;;10.10;8.50;;;30.20;66.30;;;;;;5030443;28;20230;-75
2020/12/25 02:32:36;;;;;;;9.43;8.63;;;30.30;66.20;;;;;;5013207;28;20239;-75
2020/12/25 02:35:17;;;;;;;9.30;8.40;;;30.30;66.00;;;;;;5010637;28;20235;-75
2020/12/25 02:37:49;;;;;;;11.18;8.30;;;30.40;66.00;;;;;;5010584;28;20266;-75
2020/12/25 02:40:20;;;;;;;9.30;8.43;;;30.40;65.90;;;;;;5010262;28;20257;-74
2020/12/25 02:42:50;;;;;;;10.23;8.57;;;30.50;65.70;;;;;;5020312;28;20238;-74
2020/12/25 02:45:21;;;;;;;10.23;8.82;;;30.50;65.80;;;;;;5057444;28;20253;-75
2020/12/25 02:47:51;;;;;;;10.13;7.55;;;30.50;65.60;;;;;;5072875;28;20224;-76
2020/12/25 02:50:22;;;;;;;9.45;8.50;;;30.60;65.50;;;;;;5071888;28;20279;-75
2020/12/25 02:52:54;;;;;;;10.30;8.52;;;30.60;65.40;;;;;;5059645;28;21347;-75
2020/12/25 02:55:24;;;;;;;9.48;8.52;;;30.70;65.20;;;;;;5052551;28;20340;-75
2020/12/25 02:57:55;;;;;;;9.40;8.40;;;30.70;65.50;;;;;;5052547;28;20237;-75
2020/12/25 03:00:26;;;;;;;8.93;8.02;;;30.70;65.70;;;;;;5052370;28;20226;-75
2020/12/25 03:02:57;;;;;;;10.20;8.98;;;30.80;65.60;;;;;;5047897;28;20279;-75
2020/12/25 03:05:35;;;;;;;9.85;9.02;;;30.80;66.30;;;;;;5050679;28;20234;-75
2020/12/25 03:08:07;;;;;;;10.55;9.43;;;30.80;65.40;;;;;;5051747;28;20689;-74
2020/12/25 03:10:38;;;;;;;10.70;9.35;;;30.80;65.10;;;;;;5051062;28;20248;-74
2020/12/25 03:13:09;;;;;;;10.15;8.52;;;30.80;65.00;;;;;;5050731;28;20230;-75
2020/12/25 03:15:40;;;;;;;10.15;8.70;;;30.80;65.10;;;;;;5049772;28;20221;-75
2020/12/25 03:18:10;;;;;;;9.68;8.35;;;30.80;64.90;;;;;;5042960;28;20250;-75
2020/12/25 03:20:41;;;;;;;8.80;7.90;;;30.80;65.60;;;;;;5033802;28;20265;-75
2020/12/25 03:23:13;;;;;;;9.20;8.40;;;30.80;65.00;;;;;;5034002;28;20644;-75
2020/12/25 03:25:44;;;;;;;9.55;8.65;;;30.80;65.10;;;;;;5042755;28;20722;-76
2020/12/25 03:28:15;;;;;;;11.15;8.48;;;30.90;65.00;;;;;;5055556;28;20705;-74
2020/12/25 03:30:46;;;;;;;10.90;8.57;;;30.90;64.80;;;;;;5031561;28;20254;-76
2020/12/25 03:33:17;;;;;;;8.63;7.72;;;30.90;64.90;;;;;;5045894;28;20229;-75
2020/12/25 03:35:52;;;;;;;9.70;8.57;;;30.90;65.00;;;;;;5051699;28;20234;-75
2020/12/25 03:38:24;;;;;;;9.38;8.48;;;31.00;66.00;;;;;;5054857;28;20241;-76
2020/12/25 03:40:54;;;;;;;9.75;8.75;;;31.00;64.90;;;;;;5051319;28;20271;-74
2020/12/25 03:43:25;;;;;;;9.52;8.52;;;31.10;65.00;;;;;;5048127;28;20230;-74
2020/12/25 03:45:56;;;;;;;10.65;8.63;;;31.10;65.10;;;;;;5051595;28;20240;-75
2020/12/25 03:48:28;;;;;;;7.68;6.97;;;31.20;65.00;;;;;;5051768;28;20306;-75
2020/12/25 03:51:00;;;;;;;8.63;7.47;;;31.30;64.80;;;;;;5051128;28;20221;-75
2020/12/25 03:53:31;;;;;;;9.23;6.90;;;31.30;65.00;;;;;;5050730;28;20309;-75
2020/12/25 03:56:02;;;;;;;8.40;7.20;;;31.40;64.80;;;;;;5051325;28;20303;-75
2020/12/25 03:58:33;;;;;;;8.38;6.88;;;31.50;64.20;;;;;;5050952;28;20234;-74
2020/12/25 04:01:04;;;;;;;7.07;6.47;;;31.60;64.30;;;;;;5051009;28;20228;-75
2020/12/25 04:03:34;;;;;;;6.93;6.32;;;31.70;64.10;;;;;;5007864;28;20325;-75
2020/12/25 04:06:11;;;;;;;7.32;6.32;;;31.80;64.20;;;;;;5009023;28;20239;-75
2020/12/25 04:08:45;;;;;;;7.53;6.65;;;31.90;64.00;;;;;;5009101;28;20695;-75
2020/12/25 04:11:16;;;;;;;8.70;6.57;;;32.00;63.90;;;;;;5009046;28;20227;-75
2020/12/25 04:13:47;;;;;;;8.07;7.28;;;32.10;64.00;;;;;;5009086;28;20234;-74
2020/12/25 04:16:18;;;;;;;8.52;7.70;;;32.10;63.10;;;;;;4988508;28;25617;-75
2020/12/25 04:18:49;;;;;;;7.70;6.53;;;32.20;62.90;;;;;;5000030;28;20239;-75
2020/12/25 04:21:20;;;;;;;7.25;6.65;;;32.30;63.00;;;;;;5008767;28;20304;-76
2020/12/25 04:23:52;;;;;;;7.45;6.65;;;32.30;62.80;;;;;;5009080;28;20265;-75
2020/12/25 04:26:22;;;;;;;8.25;6.80;;;32.40;62.30;;;;;;5007910;28;20273;-75
2020/12/25 04:28:53;;;;;;;7.75;6.93;;;32.40;62.30;;;;;;5047220;28;20225;-75
2020/12/25 04:31:26;;;;;;;8.00;6.93;;;32.50;62.20;;;;;;5070514;28;20312;-76
2020/12/25 04:33:57;;;;;;;8.20;7.40;;;32.60;62.20;;;;;;5070823;28;20229;-76
2020/12/25 04:36:33;;;;;;;7.47;6.88;;;32.60;61.60;;;;;;5052711;28;20312;-76
2020/12/25 04:39:05;;;;;;;7.18;6.53;;;32.60;61.60;;;;;;5050785;28;20229;-75
2020/12/25 04:41:36;;;;;;;8.48;6.72;;;32.70;61.70;;;;;;5050899;28;20229;-75
2020/12/25 04:44:07;;;;;;;7.05;6.35;;;32.70;61.80;;;;;;5040828;28;20322;-75
2020/12/25 04:46:38;;;;;;;10.07;6.45;;;32.80;62.00;;;;;;5045365;28;20241;-75
2020/12/25 04:49:09;;;;;;;7.63;6.57;;;32.70;61.50;;;;;;5051718;28;20230;-76
2020/12/25 04:51:39;;;;;;;7.00;6.40;;;32.80;61.40;;;;;;5070822;28;20609;-76
2020/12/25 04:54:12;;;;;;;7.68;6.30;;;32.80;61.40;;;;;;5059473;28;20230;-76
2020/12/25 04:56:42;;;;;;;7.32;6.63;;;32.90;61.40;;;;;;5050838;28;20648;-76
2020/12/25 04:59:14;;;;;;;7.10;5.43;;;32.90;60.80;;;;;;5050300;28;20259;-76
2020/12/25 05:01:45;;;;;;;6.72;6.13;;;32.90;61.10;;;;;;5050861;28;20245;-76
2020/12/25 05:04:21;;;;;;;7.03;6.32;;;32.90;61.10;;;;;;5045710;28;20242;-76
2020/12/25 05:06:52;;;;;;;7.00;6.40;;;33.00;60.80;;;;;;5048220;28;20225;-76
2020/12/25 05:09:25;;;;;;;6.95;6.35;;;33.00;61.00;;;;;;5047859;28;20657;-76
2020/12/25 05:11:55;;;;;;;7.38;6.68;;;33.00;61.10;;;;;;5047741;28;20237;-76
2020/12/25 05:14:26;;;;;;;8.05;7.20;;;33.00;61.30;;;;;;5046970;28;20222;-75
2020/12/25 05:16:59;;;;;;;7.47;6.80;;;33.10;61.10;;;;;;5048067;28;20226;-76
2020/12/25 05:19:30;;;;;;;7.65;6.85;;;33.10;61.10;;;;;;5047757;28;20295;-75
2020/12/25 05:22:01;;;;;;;7.95;7.25;;;33.20;60.80;;;;;;5047867;28;20234;-76
2020/12/25 05:24:39;;;;;;;7.72;7.05;;;33.20;60.60;;;;;;5044660;28;20230;-76
2020/12/25 05:27:13;;;;;;;7.35;6.60;;;33.30;60.40;;;;;;5046315;28;20611;-76
2020/12/25 05:29:43;;;;;;;6.75;6.03;;;33.30;60.70;;;;;;5047907;28;20317;-76
2020/12/25 05:32:15;;;;;;;7.97;7.18;;;33.40;60.60;;;;;;5047368;28;20287;-76
2020/12/25 05:34:45;;;;;;;8.45;6.95;;;33.40;60.20;;;;;;5014032;28;20223;-76
2020/12/25 05:37:16;;;;;;;8.98;6.85;;;33.40;59.90;;;;;;5026791;28;20321;-76
2020/12/25 05:39:47;;;;;;;8.20;6.47;;;33.40;59.90;;;;;;5030388;28;20235;-76
2020/12/25 05:42:18;;;;;;;8.57;6.97;;;33.50;60.10;;;;;;5042380;28;20238;-75
2020/12/25 05:44:49;;;;;;;10.82;6.53;;;33.50;60.10;;;;;;5051198;28;20225;-76
2020/12/25 05:47:20;;;;;;;9.10;7.03;;;33.50;59.90;;;;;;5035607;28;20257;-76
2020/12/25 05:49:51;;;;;;;7.10;5.57;;;33.60;59.80;;;;;;5030913;28;20231;-76
2020/12/25 05:52:22;;;;;;;5.50;4.68;;;33.60;59.80;;;;;;5030638;28;20237;-76
2020/12/25 05:54:54;;;;;;;4.80;4.32;;;33.70;60.00;;;;;;5031260;28;20642;-75
2020/12/25 05:57:25;;;;;;;5.38;4.75;;;33.80;59.70;;;;;;5030296;28;20239;-75
2020/12/25 05:59:55;;;;;;;4.30;3.92;;;33.80;59.80;;;;;;5031284;28;20234;-76
2020/12/25 06:02:26;;;;;;;4.93;4.43;;;33.90;59.80;;;;;;5028808;28;20227;-76
2020/12/25 06:04:56;;;;;;;4.30;3.90;;;34.00;59.70;;;;;;5034779;28;20234;-76
2020/12/25 06:07:32;;;;;;;6.00;4.20;;;34.10;59.70;;;;;;5052203;28;20257;-76
2020/12/25 06:10:05;;;;;;;3.60;3.17;;;34.20;58.60;;;;;;5053388;28;20233;-75
2020/12/25 06:12:41;;;;;;;3.00;2.80;;;34.20;59.00;;;;;;5053501;28;20242;-76
2020/12/25 06:15:12;;;;;;;3.30;2.97;;;34.30;58.90;;;;;;5053330;28;20613;-76
2020/12/25 06:17:47;;;;;;;3.60;3.30;;;34.40;59.00;;;;;;5052212;28;20555;-75
2020/12/25 06:20:18;;;;;;;3.13;2.83;;;34.50;58.90;;;;;;5052992;28;20233;-76
2020/12/25 06:22:48;;;;;;;3.22;2.80;;;34.60;58.50;;;;;;5057857;28;20232;-76
2020/12/25 06:25:21;;;;;;;2.70;2.50;;;34.70;58.60;;;;;;5072875;28;20229;-76
2020/12/25 06:27:52;;;;;;;3.83;3.22;;;34.80;58.50;;;;;;5064823;28;20284;-75
2020/12/25 06:30:26;;;;;;;3.22;2.92;;;34.90;57.70;;;;;;5052412;28;20336;-77
2020/12/25 06:32:57;;;;;;;4.45;2.60;;;35.00;57.40;;;;;;5053163;28;20226;-76
2020/12/25 06:35:33;;;;;;;3.15;2.88;;;35.00;57.10;;;;;;5052806;28;20229;-76
2020/12/25 06:38:13;;;;;;;2.80;2.60;;;35.00;57.30;;;;;;5045403;28;20264;-75
2020/12/25 06:40:45;;;;;;;4.10;2.28;;;35.00;57.10;;;;;;5036034;28;20226;-75
2020/12/25 06:43:17;;;;;;;3.28;2.50;;;35.00;56.60;;;;;;5052601;28;20232;-75
2020/12/25 06:45:52;;;;;;;2.60;2.40;;;35.00;56.70;;;;;;5052116;28;20609;-76
2020/12/25 06:48:23;;;;;;;2.63;2.42;;;35.00;56.70;;;;;;5050304;28;20241;-76
2020/12/25 06:50:54;;;;;;;2.35;2.08;;;35.00;56.70;;;;;;5052487;28;20587;-76
2020/12/25 06:53:37;;;;;;;2.40;2.20;;;34.90;56.60;;;;;;5052014;28;20600;-77
2020/12/25 06:56:14;;;;;;;2.58;2.08;;;34.90;56.40;;;;;;5050306;28;20275;-77
2020/12/25 06:58:46;;;;;;;3.15;2.72;;;34.80;56.50;;;;;;5051248;28;20724;-76
2020/12/25 07:01:18;;;;;;;3.67;2.70;;;34.90;56.60;;;;;;5051952;28;20233;-77
2020/12/25 07:03:49;;;;;;;2.95;2.75;;;34.80;56.70;;;;;;5051666;28;20237;-76
2020/12/25 07:06:20;;;;;;;3.67;3.38;;;34.80;56.50;;;;;;5067257;28;20225;-77
2020/12/25 07:08:54;;;;;;;3.28;3.05;;;34.70;56.40;;;;;;5007278;28;20226;-77
2020/12/25 07:11:26;;;;;;;3.83;3.53;;;34.70;56.50;;;;;;5009021;28;20231;-76
2020/12/25 07:13:57;;;;;;;3.65;3.30;;;34.70;56.60;;;;;;5008555;28;20271;-76
2020/12/25 07:16:28;;;;;;;6.18;3.67;;;34.60;56.70;;;;;;4990086;28;20235;-77
2020/12/25 07:18:58;;;;;;;5.07;4.28;;;34.60;56.80;;;;;;4989606;28;20246;-76
2020/12/25 07:21:30;;;;;;;5.30;4.35;;;34.60;57.00;;;;;;5001670;28;20844;-76
2020/12/25 07:24:00;;;;;;;4.38;3.97;;;34.60;57.00;;;;;;4950904;28;20237;-77
2020/12/25 07:26:32;;;;;;;6.53;3.92;;;34.50;57.10;;;;;;4951078;28;20241;-76
2020/12/25 07:29:03;;;;;;;3.65;3.35;;;34.50;57.30;;;;;;4951113;28;20240;-76
2020/12/25 07:31:34;;;;;;;4.25;3.70;;;34.50;57.30;;;;;;4950770;28;20259;-77
2020/12/25 07:34:06;;;;;;;3.72;3.40;;;34.40;57.40;;;;;;4996702;28;20250;-76
2020/12/25 07:36:36;;;;;;;3.72;3.42;;;34.40;57.40;;;;;;5024911;28;20277;-76
2020/12/25 07:39:07;;;;;;;2.80;2.60;;;34.40;57.50;;;;;;4970174;28;20791;-75
2020/12/25 07:41:39;;;;;;;2.95;2.67;;;34.40;57.60;;;;;;4951887;28;20971;-75
2020/12/25 07:44:10;;;;;;;2.53;2.25;;;34.40;57.60;;;;;;4951004;28;20229;-75
2020/12/25 07:46:40;;;;;;;2.63;2.42;;;34.40;57.80;;;;;;4963636;28;20236;-75
2020/12/25 07:49:11;;;;;;;3.47;2.97;;;34.30;57.90;;;;;;5001355;28;20604;-75
2020/12/25 07:51:42;;;;;;;4.00;3.35;;;34.30;58.00;;;;;;5003492;28;20386;-76
2020/12/25 07:54:12;;;;;;;3.17;2.97;;;34.40;58.00;;;;;;5008210;28;20401;-75
2020/12/25 07:56:44;;;;;;;4.70;3.88;;;34.40;57.70;;;;;;4958611;28;20241;-75
2020/12/25 07:59:15;;;;;;;5.18;4.35;;;34.40;57.60;;;;;;4932644;28;20242;-76
2020/12/25 08:01:46;;;;;;;3.88;3.58;;;34.40;57.80;;;;;;4949806;28;20264;-75
2020/12/25 08:04:16;;;;;;;3.95;3.65;;;34.40;57.80;;;;;;4968539;28;20236;-76
2020/12/25 08:06:47;;;;;;;3.72;3.42;;;34.40;57.90;;;;;;4960723;28;20260;-75
2020/12/25 08:09:18;;;;;;;3.67;3.38;;;34.30;57.80;;;;;;4960091;28;20227;-75
2020/12/25 08:11:50;;;;;;;3.90;3.40;;;34.30;57.80;;;;;;5013704;28;20234;-76
2020/12/25 08:14:21;;;;;;;3.10;2.90;;;34.40;57.90;;;;;;5024565;28;20309;-75
2020/12/25 08:16:52;;;;;;;3.78;3.08;;;34.40;58.10;;;;;;4950369;28;20611;-75
2020/12/25 08:19:23;;;;;;;3.60;3.30;;;34.30;58.00;;;;;;4950599;28;20236;-75
2020/12/25 08:21:54;;;;;;;3.33;3.03;;;34.30;58.10;;;;;;4955504;28;20229;-76
2020/12/25 08:24:25;;;;;;;3.47;3.22;;;34.40;58.30;;;;;;4911783;29;20274;-76
2020/12/25 08:27:00;;;;;;;3.80;3.40;;;34.30;58.30;;;;;;4918157;28;20241;-75
2020/12/25 08:29:32;;;;;;;4.15;3.75;;;34.40;58.30;;;;;;4949554;28;20296;-75
2020/12/25 08:32:08;;;;;;;4.38;3.97;;;34.30;58.10;;;;;;4949076;28;20261;-75
2020/12/25 08:34:40;;;;;;;4.15;3.75;;;34.30;58.10;;;;;;4949605;29;20237;-76
2020/12/25 08:37:14;;;;;;;4.00;3.28;;;34.30;58.00;;;;;;4949790;28;20237;-76
2020/12/25 08:39:44;;;;;;;2.95;2.70;;;34.30;58.00;;;;;;4950245;28;20237;-75
2020/12/25 08:42:23;;;;;;;2.78;2.53;;;34.30;57.80;;;;;;4998759;28;20227;-76
2020/12/25 08:44:58;;;;;;;2.75;2.38;;;34.30;57.70;;;;;;5005744;28;20310;-75
2020/12/25 08:47:28;;;;;;;2.95;2.33;;;34.30;57.50;;;;;;5007627;28;20304;-76
2020/12/25 08:49:59;;;;;;;2.70;2.50;;;34.30;57.50;;;;;;5046260;28;20229;-76
2020/12/25 08:52:30;;;;;;;2.45;2.25;;;34.20;57.50;;;;;;5049653;28;20602;-74
2020/12/25 08:55:01;;;;;;;2.17;1.98;;;34.20;57.60;;;;;;5047399;28;20226;-75
2020/12/25 08:57:33;;;;;;;3.75;2.50;;;34.20;57.60;;;;;;5048326;28;20252;-76
2020/12/25 09:00:09;;;;;;;2.97;2.17;;;34.20;57.70;;;;;;5029149;28;20226;-75
2020/12/25 09:02:40;;;;;;;4.28;2.50;;;34.20;57.50;;;;;;5029570;28;20314;-76
2020/12/25 09:05:11;;;;;;;3.13;2.45;;;34.20;57.50;;;;;;5032407;28;20230;-75
2020/12/25 09:07:42;;;;;;;2.83;2.50;;;34.20;57.60;;;;;;5038253;28;20312;-74
2020/12/25 09:10:13;;;;;;;4.57;2.58;;;34.20;57.80;;;;;;5049089;28;20233;-74
2020/12/25 09:12:44;;;;;;;2.83;2.63;;;34.20;57.70;;;;;;5049394;28;20659;-74
2020/12/25 09:15:16;;;;;;;3.42;2.60;;;34.20;57.80;;;;;;5051441;28;20275;-75
2020/12/25 09:17:48;;;;;;;3.30;3.03;;;34.30;57.70;;;;;;5051772;28;20713;-74
2020/12/25 09:20:18;;;;;;;3.25;2.90;;;34.30;57.80;;;;;;5052645;28;20230;-74
2020/12/25 09:22:49;;;;;;;4.53;2.97;;;34.30;58.00;;;;;;5052751;28;20229;-74
2020/12/25 09:25:20;;;;;;;4.68;2.90;;;34.30;58.00;;;;;;5052978;28;20233;-75
2020/12/25 09:27:52;;;;;;;3.47;2.88;;;34.40;58.20;;;;;;5051666;28;20234;-74
2020/12/25 09:30:22;;;;;;;4.88;3.22;;;34.50;58.20;;;;;;5052155;28;24857;-75
2020/12/25 09:32:53;;;;;;;2.90;2.53;;;34.60;58.10;;;;;;5052541;28;20309;-74
2020/12/25 09:35:25;;;;;;;3.00;2.50;;;34.60;57.70;;;;;;5052641;28;20229;-75
2020/12/25 09:37:55;;;;;;;3.10;2.80;;;34.70;57.30;;;;;;5052475;28;20316;-75
2020/12/25 09:40:26;;;;;;;3.40;3.10;;;34.80;57.40;;;;;;5052295;28;20233;-75
2020/12/25 09:42:58;;;;;;;3.58;3.10;;;34.90;57.20;;;;;;5052726;28;20233;-75
2020/12/25 09:45:28;;;;;;;3.20;2.90;;;35.00;56.90;;;;;;5043494;28;20242;-73
2020/12/25 09:47:59;;;;;;;3.53;2.80;;;35.10;56.80;;;;;;5037667;28;20236;-73
2020/12/25 09:50:29;;;;;;;3.78;2.75;;;35.20;56.90;;;;;;5052089;28;20226;-73
2020/12/25 09:53:00;;;;;;;3.25;2.53;;;35.30;56.70;;;;;;5042714;28;20226;-73
2020/12/25 09:55:36;;;;;;;3.17;2.47;;;35.50;56.60;;;;;;5032840;28;20309;-73
2020/12/25 09:58:09;;;;;;;3.70;2.75;;;35.60;56.30;;;;;;5050205;28;20229;-73
2020/12/25 10:00:43;;;;;;;3.65;2.40;;;35.70;56.00;;;;;;5052114;28;20234;-72
2020/12/25 10:03:13;;;;;;;3.45;2.90;;;35.70;55.60;;;;;;5052003;28;20229;-72
2020/12/25 10:05:44;;;;;;;3.47;3.17;;;35.70;55.40;;;;;;5051515;28;20238;-73
2020/12/25 10:08:15;;;;;;;4.47;3.05;;;35.70;54.70;;;;;;5051608;28;20732;-73
2020/12/25 10:10:46;;;;;;;2.90;2.70;;;35.70;54.70;;;;;;5051082;28;20592;-72
2020/12/25 10:13:17;;;;;;;2.65;2.45;;;35.70;54.90;;;;;;5052423;28;21083;-72
2020/12/25 10:15:49;;;;;;;3.20;2.72;;;35.60;55.40;;;;;;5051886;28;20229;-72
2020/12/25 10:18:20;;;;;;;3.45;2.95;;;35.70;55.50;;;;;;5043859;28;20234;-73
2020/12/25 10:20:51;;;;;;;4.95;3.55;;;35.70;55.40;;;;;;5050087;28;20262;-74
2020/12/25 10:23:21;;;;;;;3.30;2.80;;;35.70;55.30;;;;;;5049964;28;20316;-75
2020/12/25 10:25:52;;;;;;;3.50;2.92;;;35.80;55.20;;;;;;5050540;28;20244;-75
2020/12/25 10:28:23;;;;;;;4.65;3.10;;;35.80;55.00;;;;;;5051123;28;20257;-73
2020/12/25 10:30:54;;;;;;;5.82;3.25;;;35.80;54.70;;;;;;5049828;28;20295;-74
2020/12/25 10:33:24;;;;;;;5.40;2.92;;;35.70;54.50;;;;;;5031217;28;20585;-74
2020/12/25 10:35:56;;;;;;;3.33;3.00;;;35.70;54.40;;;;;;5032726;28;20230;-74
2020/12/25 10:38:27;;;;;;;3.38;2.92;;;35.60;54.60;;;;;;5032544;28;20238;-74
2020/12/25 10:40:57;;;;;;;5.45;2.88;;;35.50;54.70;;;;;;5043461;28;20237;-74
2020/12/25 10:43:29;;;;;;;3.40;2.78;;;35.30;55.00;;;;;;5049350;28;20264;-74
2020/12/25 10:46:00;;;;;;;3.67;3.35;;;35.20;55.40;;;;;;5049843;28;20234;-74
2020/12/25 10:48:30;;;;;;;3.67;3.05;;;35.10;55.80;;;;;;5050031;28;20313;-74
2020/12/25 10:51:01;;;;;;;3.42;2.97;;;35.00;56.00;;;;;;5047135;28;20234;-74
2020/12/25 10:53:32;;;;;;;4.45;3.20;;;34.90;56.10;;;;;;5049424;28;20283;-74
2020/12/25 10:56:02;;;;;;;5.53;3.75;;;34.80;56.10;;;;;;5049938;28;20234;-74
2020/12/25 10:58:35;;;;;;;4.43;4.03;;;34.70;56.30;;;;;;5052096;28;20233;-74
2020/12/25 11:01:05;;;;;;;4.55;4.03;;;34.60;56.50;;;;;;5048057;28;20301;-74
2020/12/25 11:03:36;;;;;;;6.63;5.00;;;34.50;56.70;;;;;;5045604;28;20233;-74
2020/12/25 11:06:06;;;;;;;5.75;4.75;;;34.40;57.80;;;;;;5052137;28;20238;-74
2020/12/25 11:08:37;;;;;;;6.40;5.15;;;34.30;57.10;;;;;;5052162;28;20295;-74
2020/12/25 11:11:08;;;;;;;7.68;5.40;;;34.20;57.20;;;;;;5051180;28;20226;-74
2020/12/25 11:13:42;;;;;;;5.32;4.53;;;34.10;57.40;;;;;;5049038;28;20233;-74
2020/12/25 11:16:13;;;;;;;5.97;4.68;;;34.00;57.50;;;;;;5051895;28;20229;-74
2020/12/25 11:18:44;;;;;;;5.10;4.53;;;33.90;57.60;;;;;;5047209;28;20628;-74
2020/12/25 11:21:22;;;;;;;5.60;4.50;;;33.80;57.70;;;;;;5035534;28;20267;-74
2020/12/25 11:23:53;;;;;;;6.43;5.10;;;33.80;58.00;;;;;;5047844;28;20238;-74
2020/12/25 11:26:24;;;;;;;8.57;7.20;;;33.70;58.20;;;;;;5049135;28;20268;-74
2020/12/25 11:28:57;;;;;;;9.38;8.23;;;33.60;58.60;;;;;;5045344;28;20237;-74
2020/12/25 11:31:27;;;;;;;9.43;7.20;;;33.50;59.00;;;;;;5049446;28;20681;-74
2020/12/25 11:33:58;;;;;;;7.82;7.00;;;33.50;59.10;;;;;;5048959;28;20256;-74
2020/12/25 11:36:32;;;;;;;6.45;5.30;;;33.40;59.10;;;;;;5047707;28;20287;-74
2020/12/25 11:39:02;;;;;;;4.50;4.10;;;33.30;59.00;;;;;;5047556;28;20320;-74
2020/12/25 11:41:33;;;;;;;5.22;4.60;;;33.20;58.90;;;;;;5029618;28;20234;-74
2020/12/25 11:44:05;;;;;;;4.07;3.33;;;33.20;58.90;;;;;;5033893;28;20253;-74
2020/12/25 11:46:35;;;;;;;4.25;3.20;;;33.10;58.90;;;;;;5048844;28;20716;-74
2020/12/25 11:49:07;;;;;;;3.42;3.10;;;33.10;58.90;;;;;;5046757;28;20287;-74
2020/12/25 11:51:38;;;;;;;5.10;3.20;;;33.00;58.90;;;;;;5050953;28;20810;-73
2020/12/25 11:54:08;;;;;;;3.88;3.08;;;32.90;59.00;;;;;;5053538;28;20237;-72
2020/12/25 11:56:39;;;;;;;3.15;2.53;;;32.90;59.00;;;;;;5070929;28;20259;-73
2020/12/25 11:59:11;;;;;;;5.93;2.78;;;32.80;59.00;;;;;;5064206;28;20230;-73
2020/12/25 12:01:42;;;;;;;2.88;2.58;;;32.80;59.10;;;;;;5031891;28;20238;-73
2020/12/25 12:04:12;;;;;;;3.75;2.97;;;32.70;59.20;;;;;;5050934;28;20268;-72
2020/12/25 12:06:43;;;;;;;3.90;3.00;;;32.70;59.50;;;;;;5033362;28;20241;-72
2020/12/25 12:09:13;;;;;;;6.57;3.47;;;32.70;59.80;;;;;;5050146;28;20230;-72
2020/12/25 12:11:44;;;;;;;5.65;4.38;;;32.70;60.10;;;;;;5047751;28;20241;-72
2020/12/25 12:14:16;;;;;;;5.10;4.18;;;32.60;60.60;;;;;;5048351;28;20237;-72
2020/12/25 12:16:46;;;;;;;6.05;4.57;;;32.60;60.80;;;;;;5059159;28;20747;-72
2020/12/25 12:19:17;;;;;;;6.68;4.32;;;32.50;60.90;;;;;;5049766;28;20226;-72
2020/12/25 12:21:48;;;;;;;6.38;4.32;;;32.50;61.00;;;;;;5035455;28;20234;-72
2020/12/25 12:24:18;;;;;;;5.53;3.92;;;32.40;60.90;;;;;;5045684;28;20257;-73
2020/12/25 12:27:01;;;;;;;4.60;3.85;;;32.40;61.20;;;;;;5067621;28;20672;-73
2020/12/25 12:29:33;;;;;;;4.65;3.65;;;32.30;61.00;;;;;;5070976;28;20228;-72
2020/12/25 12:32:04;;;;;;;4.75;3.70;;;32.30;61.00;;;;;;5050567;28;20245;-72
2020/12/25 12:34:34;;;;;;;3.83;3.42;;;32.20;61.10;;;;;;5049567;28;20233;-72
2020/12/25 12:37:06;;;;;;;4.05;3.35;;;32.20;61.30;;;;;;5033490;28;20226;-72
2020/12/25 12:39:37;;;;;;;4.95;3.42;;;32.10;61.70;;;;;;5036095;28;20315;-72
2020/12/25 12:42:08;;;;;;;4.93;3.88;;;32.10;61.70;;;;;;5050685;28;20226;-72
2020/12/25 12:44:40;;;;;;;4.00;3.10;;;32.10;61.80;;;;;;5048817;28;20230;-73
2020/12/25 12:47:11;;;;;;;3.75;2.92;;;32.00;61.60;;;;;;5050495;28;20240;-73
2020/12/25 12:49:41;;;;;;;3.72;3.08;;;32.00;61.70;;;;;;5052903;28;20233;-72
2020/12/25 12:52:12;;;;;;;4.03;3.08;;;31.90;61.60;;;;;;5054795;28;20303;-72
2020/12/25 12:54:43;;;;;;;4.53;3.00;;;31.90;61.70;;;;;;5053378;28;20249;-73
2020/12/25 12:57:13;;;;;;;4.13;3.17;;;31.90;61.90;;;;;;5064330;28;20229;-72
2020/12/25 12:59:45;;;;;;;3.85;2.95;;;31.90;61.80;;;;;;5061514;28;20237;-72
2020/12/25 13:02:16;;;;;;;2.65;2.38;;;31.80;61.90;;;;;;5053785;28;20283;-73
2020/12/25 13:04:47;;;;;;;3.40;2.92;;;31.90;62.00;;;;;;5053519;28;20693;-73
2020/12/25 13:07:17;;;;;;;3.70;3.30;;;31.80;61.90;;;;;;5054529;28;20686;-73